createdAt,value
2018-05-07T00:00:08.287Z,75.8
2018-05-07T00:05:08.573Z,76.1
2018-05-07T00:10:05.816Z,76.6
2018-05-07T00:15:07.827Z,76.5
2018-05-07T00:20:03.160Z,76.5
2018-05-07T00:25:06.060Z,76.8
2018-05-07T00:30:08.420Z,77.3
2018-05-07T00:35:05.239Z,77.4
2018-05-07T00:40:02.942Z,77.5
2018-05-07T00:45:03.230Z,77.8
2018-05-07T00:50:05.087Z,78.3
2018-05-07T00:55:05.320Z,78.5
2018-05-07T01:00:05.161Z,78.5
2018-05-07T01:05:02.912Z,78.5
2018-05-07T01:10:07.683Z,79
2018-05-07T01:15:05.423Z,79.4
2018-05-07T01:20:05.261Z,79.2
2018-05-07T01:25:05.581Z,79.3
2018-05-07T01:30:05.371Z,79.6
2018-05-07T01:35:05.866Z,80
2018-05-07T01:40:02.597Z,80
2018-05-07T01:45:02.906Z,80.2
2018-05-07T01:50:05.701Z,80.4
2018-05-07T01:55:08.585Z,80.8
2018-05-07T02:00:05.409Z,80.9
2018-05-07T02:05:03.152Z,80.9
2018-05-07T02:10:05.393Z,81.3
2018-05-07T02:15:03.131Z,81.1
2018-05-07T02:20:05.981Z,81.4
2018-05-07T02:25:07.809Z,81.7
2018-05-07T02:30:03.085Z,81.7
2018-05-07T02:35:13.456Z,81.8
2018-05-07T02:40:03.226Z,81.7
2018-05-07T02:45:03.464Z,81.7
2018-05-07T02:50:02.745Z,81.7
2018-05-07T02:55:02.995Z,81.6
2018-05-07T03:00:05.838Z,81.9
2018-05-07T03:05:02.614Z,81.8
2018-05-07T03:10:08.476Z,83
2018-05-07T03:15:15.297Z,83.1
2018-05-07T03:20:05.115Z,83.4
2018-05-07T03:25:02.901Z,83.4
2018-05-07T03:30:03.184Z,83.7
2018-05-07T03:35:03.459Z,84
2018-05-07T03:40:03.165Z,84
2018-05-07T03:45:03.404Z,84
2018-05-07T03:50:02.645Z,83.6
2018-05-07T03:55:07.956Z,84.3
2018-05-07T04:00:08.271Z,84.5
2018-05-07T04:05:05.080Z,84.7
2018-05-07T04:10:02.759Z,84.7
2018-05-07T04:15:03.001Z,84.6
2018-05-07T04:20:03.472Z,84.5
2018-05-07T04:25:10.193Z,85
2018-05-07T04:30:08.528Z,84.9
2018-05-07T04:35:05.273Z,85.2
2018-05-07T04:40:05.497Z,85.5
2018-05-07T04:45:08.365Z,84.6
2018-05-07T04:50:05.140Z,84.8
2018-05-07T04:55:02.919Z,84.8
2018-05-07T05:00:08.244Z,84.9
2018-05-07T05:05:03.456Z,84.9
2018-05-07T05:10:05.798Z,84.8
2018-05-07T05:15:03.496Z,84.8
2018-05-07T05:20:05.366Z,84.1
2018-05-07T05:25:08.144Z,83.8
2018-05-07T05:30:08.616Z,82.9
2018-05-07T05:35:02.752Z,82.9
2018-05-07T05:40:03.506Z,82.1
2018-05-07T05:45:02.756Z,81.4
2018-05-07T05:50:13.394Z,79.3
2018-05-07T05:55:15.298Z,78.8
2018-05-07T06:00:03.242Z,78.9
2018-05-07T06:05:05.135Z,76.4
2018-05-07T06:10:02.846Z,76.4
2018-05-07T06:15:05.698Z,75
2018-05-07T06:20:03.128Z,75
2018-05-07T06:25:06.077Z,73.8
2018-05-07T06:30:03.330Z,73.8
2018-05-07T06:35:05.208Z,71.1
2018-05-07T06:40:08.165Z,69.8
2018-05-07T06:45:03.380Z,69.8
2018-05-07T06:50:10.310Z,66.6
2018-05-07T06:55:03.060Z,66.6
2018-05-07T07:00:03.363Z,65.6
2018-05-07T07:05:02.736Z,65.2
2018-05-07T07:10:02.913Z,64.1
2018-05-07T07:15:03.259Z,62.9
2018-05-07T07:20:02.752Z,61.4
2018-05-07T07:25:03.083Z,60.9
2018-05-07T07:30:02.764Z,59.6
2018-05-07T07:35:03.165Z,59.4
2018-05-07T07:40:05.418Z,57.4
2018-05-07T07:45:03.194Z,57.4
2018-05-07T07:50:03.490Z,56.5
2018-05-07T07:55:02.866Z,55.7
2018-05-07T08:00:03.235Z,55
2018-05-07T08:05:07.740Z,52.5
2018-05-07T08:10:05.063Z,52.1
2018-05-07T08:15:03.397Z,52.1
2018-05-07T08:20:02.762Z,51.1
2018-05-07T08:25:08.162Z,50.4
2018-05-07T08:30:05.367Z,49.9
2018-05-07T08:35:03.160Z,49.9
2018-05-07T08:40:05.417Z,50.1
2018-05-07T08:45:03.387Z,50.1
2018-05-07T08:50:02.657Z,50.1
2018-05-07T08:55:05.541Z,50.6
2018-05-07T09:00:02.940Z,50.7
2018-05-07T09:05:20.421Z,44.1
2018-05-07T09:10:05.660Z,50.1
2018-05-07T09:15:03.525Z,50.1
2018-05-07T09:20:05.439Z,48.9
2018-05-07T09:25:05.769Z,48.3
2018-05-07T09:30:03.139Z,48.3
2018-05-07T09:35:16.112Z,47.9
2018-05-07T09:40:02.877Z,47.9
2018-05-07T09:45:05.839Z,47.8
2018-05-07T09:50:03.239Z,47.7
2018-05-07T09:55:22.773Z,47.3
2018-05-07T10:00:03.097Z,47.2
2018-05-07T10:05:03.490Z,47
2018-05-07T10:10:03.246Z,46.8
2018-05-07T10:15:02.610Z,45.1
2018-05-07T10:20:03.040Z,45.5
2018-05-07T10:25:02.630Z,45.5
2018-05-07T10:30:05.538Z,44
2018-05-07T10:35:08.364Z,44.2
2018-05-07T10:40:03.120Z,44.3
2018-05-07T10:45:03.509Z,42.5
2018-05-07T10:50:05.371Z,41.8
2018-05-07T10:55:03.160Z,41.7
2018-05-07T11:00:03.494Z,41.7
2018-05-07T11:05:05.431Z,41.8
2018-05-07T11:10:10.911Z,40.9
2018-05-07T11:15:07.728Z,40.5
2018-05-07T11:20:05.647Z,41.1
2018-05-07T11:25:02.607Z,41.1
2018-05-07T11:30:05.480Z,39.3
2018-05-07T11:35:03.297Z,39.3
2018-05-07T11:40:03.099Z,40
2018-05-07T11:45:03.466Z,39.4
2018-05-07T11:50:05.370Z,39.1
2018-05-07T11:55:05.793Z,38.5
2018-05-07T12:00:05.696Z,38.6
2018-05-07T12:05:17.766Z,37.8
2018-05-07T12:10:06.063Z,37.3
2018-05-07T12:15:03.068Z,37.3
2018-05-07T12:20:06.064Z,12.5
2018-05-07T12:25:07.951Z,37
2018-05-07T12:30:21.053Z,38.5
2018-05-07T12:35:07.748Z,39.4
2018-05-07T12:40:05.062Z,36.7
2018-05-07T12:45:05.576Z,36.3
2018-05-07T12:50:02.882Z,36.3
2018-05-07T12:55:03.265Z,36.6
2018-05-07T13:00:07.743Z,35
2018-05-07T13:05:03.145Z,34.9
2018-05-07T13:10:05.436Z,36.3
2018-05-07T13:15:05.865Z,35.1
2018-05-07T13:20:05.842Z,34.9
2018-05-07T13:25:05.270Z,32.4
2018-05-07T13:30:02.689Z,32.3
2018-05-07T13:35:05.763Z,26
2018-05-07T13:40:05.128Z,25.6
2018-05-07T13:45:03.107Z,25.6
2018-05-07T13:50:08.649Z,22.2
2018-05-07T13:55:05.548Z,21.8
2018-05-07T14:00:05.545Z,19.9
2018-05-07T14:05:03.517Z,19.9
2018-05-07T14:10:03.541Z,19.2
2018-05-07T14:15:13.181Z,19.5
2018-05-07T14:20:02.741Z,19.5
2018-05-07T14:25:03.208Z,21.6
2018-05-07T14:30:05.396Z,24.4
2018-05-07T14:35:03.247Z,24.4
2018-05-07T14:40:03.089Z,25.6
2018-05-07T14:45:05.079Z,29.1
2018-05-07T14:50:03.533Z,28.9
2018-05-07T14:55:03.024Z,28
2018-05-07T15:00:03.412Z,27.3
2018-05-07T15:05:05.461Z,28.4
2018-05-07T15:10:08.343Z,27.7
2018-05-07T15:15:02.784Z,27.4
2018-05-07T15:20:05.851Z,28.7
2018-05-07T15:25:12.790Z,28.9
2018-05-07T15:30:05.730Z,27.5
2018-05-07T15:35:02.681Z,27.5
2018-05-07T15:40:05.080Z,29.7
2018-05-07T15:45:03.073Z,29.6
2018-05-07T15:50:03.427Z,29.6
2018-05-07T15:55:02.866Z,28.8
2018-05-07T16:00:03.260Z,29.6
2018-05-07T16:05:02.735Z,29.6
2018-05-07T16:10:05.460Z,28.1
2018-05-07T16:15:03.434Z,28
2018-05-07T16:20:03.288Z,27.4
2018-05-07T16:25:03.088Z,27.9
2018-05-07T16:30:02.840Z,27.2
2018-05-07T16:35:08.377Z,28.3
2018-05-07T16:40:03.443Z,28.3
2018-05-07T16:45:05.796Z,28.3
2018-05-07T16:50:08.246Z,29.6
2018-05-07T16:55:03.099Z,29.6
2018-05-07T17:00:16.074Z,30.4
2018-05-07T17:05:10.429Z,31.1
2018-05-07T17:10:03.338Z,31.1
2018-05-07T17:15:07.848Z,32.2
2018-05-07T17:20:05.868Z,33.6
2018-05-07T17:25:05.498Z,34.3
2018-05-07T17:30:05.919Z,35.4
2018-05-07T17:35:05.232Z,36.3
2018-05-07T17:40:18.323Z,36.4
2018-05-07T17:45:03.496Z,36.3
2018-05-07T17:50:02.859Z,36.3
2018-05-07T17:55:03.285Z,38
2018-05-07T18:00:05.170Z,39.3
2018-05-07T18:05:05.592Z,39.7
2018-05-07T18:10:05.946Z,39.8
2018-05-07T18:15:03.117Z,39.9
2018-05-07T18:20:02.572Z,40.3
2018-05-07T18:25:05.463Z,41.8
2018-05-07T18:30:10.443Z,42.5
2018-05-07T18:35:03.216Z,42.6
2018-05-07T18:40:08.072Z,44.5
2018-05-07T18:45:03.358Z,44.6
2018-05-07T18:50:05.221Z,45.3
2018-05-07T18:55:18.252Z,44.6
2018-05-07T19:00:02.652Z,44.6
2018-05-07T19:05:03.027Z,45.4
2018-05-07T19:10:05.335Z,47.4
2018-05-07T19:15:03.416Z,47.4
2018-05-07T19:20:02.856Z,46.9
2018-05-07T19:25:05.720Z,47.8
2018-05-07T19:30:10.599Z,48.6
2018-05-07T19:35:05.871Z,48.8
2018-05-07T19:40:02.862Z,48.7
2018-05-07T19:45:05.608Z,49.6
2018-05-07T19:50:02.978Z,49.6
2018-05-07T19:55:03.300Z,50.3
2018-05-07T20:00:10.200Z,51.1
2018-05-07T20:05:08.059Z,51.6
2018-05-07T20:10:10.517Z,52.5
2018-05-07T20:15:10.967Z,52.7
2018-05-07T20:20:08.459Z,53.3
2018-05-07T20:25:02.746Z,53.3
2018-05-07T20:30:08.129Z,54
2018-05-07T20:35:05.159Z,54.5
2018-05-07T20:40:10.588Z,55
2018-05-07T20:45:03.459Z,55
2018-05-07T20:50:02.827Z,55.3
2018-05-07T20:55:03.119Z,56
2018-05-07T21:00:03.391Z,56.8
2018-05-07T21:05:02.777Z,57.2
2018-05-07T21:10:02.611Z,57.5
2018-05-07T21:15:02.970Z,58.1
2018-05-07T21:20:02.810Z,58.9
2018-05-07T21:25:03.091Z,59
2018-05-07T21:30:06.003Z,60.5
2018-05-07T21:35:07.824Z,60.9
2018-05-07T21:40:02.602Z,61
2018-05-07T21:45:02.925Z,61.2
2018-05-07T21:50:13.309Z,62.6
2018-05-07T21:55:03.487Z,62.6
2018-05-07T22:00:05.299Z,63.3
2018-05-07T22:05:03.294Z,63.3
2018-05-07T22:10:03.002Z,63.9
2018-05-07T22:15:02.627Z,64.2
2018-05-07T22:20:03.008Z,64.6
2018-05-07T22:25:03.388Z,65
2018-05-07T22:30:02.657Z,65.1
2018-05-07T22:35:05.527Z,65.4
2018-05-07T22:40:03.262Z,65.4
2018-05-07T22:45:02.731Z,66.2
2018-05-07T22:50:05.841Z,67
2018-05-07T22:55:05.275Z,67.3
2018-05-07T23:00:03.506Z,67.3
2018-05-07T23:05:05.382Z,67.8
2018-05-07T23:10:05.637Z,68.2
2018-05-07T23:15:10.170Z,68.6
2018-05-07T23:20:02.565Z,68.6
2018-05-07T23:25:02.885Z,69.2
2018-05-07T23:30:18.558Z,69.1
2018-05-07T23:35:02.549Z,69.1
2018-05-07T23:40:05.831Z,69.5
2018-05-07T23:45:07.723Z,70.1
2018-05-07T23:50:08.112Z,70.4
2018-05-07T23:55:08.412Z,71.1
